Aircraft SR22 Reg No. G-CTAM Age N/A
Model SR-22 Piston engine 1 First flight N/A
Registered 15-06-09 Rollout N/A Delivered N/A
Construction No. 2740 Line No. N/A Series N/A
ADSHEX 4060FB Airline name N/A Owner N/A
Airfield based Lee-on-Solent~Hants~G First tracked N/A

Flight history for G-CTAM

Route Flight No Date Playback
???? N/A 2020-05-31 13:44:00
???? N/A 2020-05-28 14:08:00
???? N/A 2020-05-25 15:11:00
???? N/A 2020-05-20 13:53:00
???? N/A 2020-04-24 14:09:00
???? N/A 2020-03-22 16:25:00
???? N/A 2020-03-08 13:04:00
???? N/A 2020-02-08 16:15:00
???? N/A 2020-02-01 14:04:00
???? N/A 2020-01-19 14:18:00
???? N/A 2019-11-29 11:39:00
???? N/A 2019-11-16 12:06:00
???? N/A 2019-10-27 15:16:00
???? N/A 2019-10-20 15:09:00
???? N/A 2019-10-02 14:02:00
???? N/A 2019-09-18 13:56:00
???? N/A 2019-09-14 15:33:00
???? N/A 2019-09-01 16:45:00
???? N/A 2019-08-26 14:19:00
???? N/A 2019-08-24 16:56:00
Time Lat Lon Altitude Heading Speed Vertical Rate
2020-05-31 13:43:25 GMT 50.804920 -1.302192 0 51 65 0
2020-05-31 13:43:15 GMT 50.802631 -1.306403 100 54 68 -300
2020-05-31 13:43:05 GMT 50.800114 -1.311067 200 49 100 -360
2020-05-31 13:42:54 GMT 50.795490 -1.316870 300 33 109 -900
2020-05-31 13:42:43 GMT 50.789097 -1.327622 300 43 162 -900
2020-05-31 13:42:31 GMT 50.789097 -1.327622 400 64 54 0
2020-05-31 13:42:20 GMT 50.786953 -1.333686 600 62 89 0
2020-05-31 13:42:10 GMT 50.785168 -1.340354 600 70 73 0
2020-05-31 13:42:00 GMT 50.783463 -1.347328 600 67 114 -600
2020-05-31 13:41:48 GMT 50.780846 -1.355832 600 70 101 -300
2020-05-31 13:41:38 GMT 50.779259 -1.361448 700 58 74 -420
2020-05-31 13:41:27 GMT 50.777565 -1.369051 900 67 125 -420
2020-05-31 13:41:16 GMT 50.774529 -1.378427 1,000 73 122 -420
2020-05-31 13:41:05 GMT 50.771519 -1.387621 1,100 67 145 -420
2020-05-31 13:40:55 GMT 50.768349 -1.396714 1,100 62 117 -780
2020-05-31 13:40:44 GMT 50.765450 -1.405268 1,300 49 117 -360
2020-05-31 13:40:34 GMT 50.762901 -1.412945 1,400 63 121 0
2020-05-31 13:40:24 GMT 50.760422 -1.421522 1,500 62 168 -420
2020-05-31 13:40:13 GMT 50.757465 -1.430902 1,500 67 97 -360
2020-05-31 13:40:01 GMT 50.754642 -1.442237 1,600 66 117 0
2020-05-31 13:39:50 GMT 50.752026 -1.451783 1,600 80 200 0
2020-05-31 13:39:40 GMT 50.749645 -1.460684 1,600 77 132 0
2020-05-31 13:39:30 GMT 50.747265 -1.469313 1,500 62 91 0
2020-05-31 13:39:20 GMT 50.745220 -1.476341 1,600 74 197 0
2020-05-31 13:39:10 GMT 50.743000 -1.484628 1,600 70 141 0
2020-05-31 13:39:00 GMT 50.740566 -1.494216 1,600 71 149 0
2020-05-31 13:38:49 GMT 50.737816 -1.507363 1,600 62 114 0
2020-05-31 13:38:37 GMT 50.733837 -1.516490 1,600 79 137 0
2020-05-31 13:38:26 GMT 50.732609 -1.527099 1,600 58 142 0
2020-05-31 13:38:16 GMT 50.730434 -1.546672 1,600 69 160 0
2020-05-31 13:38:06 GMT 50.730434 -1.546672 1,600 71 134 0
2020-05-31 13:37:56 GMT 50.729980 -1.556835 1,600 130 122 0
2020-05-31 13:37:46 GMT 50.728508 -1.566684 1,600 106 119 0
2020-05-31 13:37:35 GMT 50.727901 -1.578257 1,600 57 145 0
2020-05-31 13:37:24 GMT 50.729370 -1.588865 1,600 158 108 0
2020-05-31 13:37:10 GMT 50.731476 -1.600768 1,600 102 215 0
2020-05-31 13:37:00 GMT 50.732731 -1.612360 1,600 113 147 0
2020-05-31 13:36:49 GMT 50.734440 -1.623630 1,600 94 141 0
2020-05-31 13:36:39 GMT 50.736759 -1.643984 1,600 64 295 0
2020-05-31 13:36:28 GMT 50.736759 -1.643984 1,600 102 173 0
2020-05-31 13:36:18 GMT 50.739105 -1.655101 1,600 96 137 0
2020-05-31 13:36:06 GMT 50.740265 -1.667238 1,600 107 145 -420
2020-05-31 13:35:56 GMT 50.742081 -1.688994 1,600 100 164 -600
2020-05-31 13:35:46 GMT 50.742081 -1.688994 1,700 95 137 -300
2020-05-31 13:35:31 GMT 50.745266 -1.703191 1,800 125 127 -300
2020-05-31 13:35:20 GMT 50.747494 -1.715515 1,800 58 183 0
2020-05-31 13:35:09 GMT 50.749084 -1.725764 1,800 98 191 -240
2020-05-31 13:34:58 GMT 50.750175 -1.737090 1,900 107 162 -240
2020-05-31 13:34:46 GMT 50.751743 -1.749878 1,900 101 142 -180
2020-05-31 13:34:28 GMT 50.754128 -1.768215 2,000 103 147 -180
2020-05-31 13:33:54 GMT 50.759453 -1.803997 2,200 65 245 -180
2020-05-31 13:33:06 GMT 50.757217 -1.858641 2,300 79 151 0
2020-05-31 13:32:48 GMT 50.755669 -1.874705 2,400 80 151 0
2020-05-31 13:32:36 GMT 50.753464 -1.886672 2,400 69 145 0
2020-05-31 13:32:23 GMT 50.750519 -1.900499 2,400 67 141 0
2020-05-31 13:32:03 GMT 50.745411 -1.919590 2,400 77 223 0
2020-05-31 13:31:53 GMT 50.742142 -1.936146 2,400 68 85 -60
2020-05-31 13:31:18 GMT 50.737175 -1.956547 2,400 77 350 -60
2020-05-31 13:31:03 GMT 50.731846 -1.993998 2,400 241 524 -60
2020-05-31 13:30:07 GMT 50.719223 -2.032700 2,400 78 143 -256
2020-05-31 13:29:57 GMT 50.717312 -2.039795 2,400 78 143 -256
2020-05-31 13:29:50 GMT 50.715778 -2.049179 2,400 78 143 -256
2020-05-31 13:29:38 GMT 50.713917 -2.060928 2,400 80 135 -256
2020-05-31 13:29:28 GMT 50.712097 -2.072601 2,500 80 135 -256
2020-05-31 13:28:25 GMT 50.705482 -2.127998 2,700 89 150 -320
2020-05-31 13:27:58 GMT 50.705212 -2.164230 2,800 94 144 -320
2020-05-31 13:27:45 GMT 50.705723 -2.178268 2,800 94 141 -192
2020-05-31 13:27:37 GMT 50.706280 -2.187576 2,900 94 141 -192
2020-05-31 13:27:28 GMT 50.706699 -2.194672 2,900 94 141 -192
2020-05-31 13:27:14 GMT 50.707817 -2.210083 2,900 94 141 -192
2020-05-31 13:27:09 GMT 50.708004 -2.215271 3,025 94 141 -192
2020-05-31 13:26:56 GMT 50.708607 -2.229996 3,000 95 137 0
2020-05-31 13:26:46 GMT 50.708885 -2.240067 3,100 95 137 0
2020-05-31 13:26:39 GMT 50.709213 -2.246017 3,125 95 137 0
2020-05-31 13:26:26 GMT 50.709911 -2.258911 3,100 97 142 64
2020-05-31 13:26:13 GMT 50.710518 -2.270813 3,100 97 142 64
2020-05-31 13:26:07 GMT 50.710888 -2.276993 3,200 97 142 64
2020-05-31 13:25:54 GMT 50.711586 -2.290878 3,100 97 142 64
2020-05-31 13:25:49 GMT 50.712006 -2.297974 3,125 97 142 64
2020-05-31 13:25:34 GMT 50.712612 -2.311478 3,100 103 135 -64
2020-05-31 13:25:27 GMT 50.713078 -2.318115 3,100 103 135 -64
2020-05-31 13:25:15 GMT 50.714287 -2.330399 3,100 103 135 -64
2020-05-31 13:25:08 GMT 50.715218 -2.341080 3,100 103 135 -64
2020-05-31 13:24:56 GMT 50.716011 -2.349014 3,100 102 140 128
2020-05-31 13:24:42 GMT 50.718475 -2.362900 3,100 102 140 128
2020-05-31 13:24:35 GMT 50.720387 -2.370377 3,100 102 140 128
2020-05-31 13:24:22 GMT 50.724018 -2.386475 3,200 102 140 128
2020-05-31 13:24:16 GMT 50.724018 -2.386475 3,200 102 140 128
2020-05-31 13:24:06 GMT 50.725693 -2.398605 3,150 102 140 128
2020-05-31 13:23:54 GMT 50.726997 -2.409134 3,200 102 132 0
2020-05-31 13:23:46 GMT 50.728298 -2.417068 3,125 102 132 0
2020-05-31 13:23:35 GMT 50.729881 -2.429581 3,100 100 132 -128
2020-05-31 13:23:21 GMT 50.731697 -2.442322 3,100 100 132 -128
2020-05-31 13:23:15 GMT 50.732582 -2.446289 3,100 100 132 -128
2020-05-31 13:23:03 GMT 50.734398 -2.457962 3,200 100 132 -128
2020-05-31 13:22:51 GMT 50.736492 -2.470703 3,100 100 132 -128
2020-05-31 13:22:45 GMT 50.737610 -2.477417 3,100 100 132 -128
2020-05-31 13:22:32 GMT 50.739613 -2.489700 3,200 100 132 -128
2020-05-31 13:22:21 GMT 50.741100 -2.500687 3,100 100 132 -128
2020-05-31 13:22:14 GMT 50.742592 -2.506866 3,200 100 132 -128
2020-05-31 13:21:59 GMT 50.745197 -2.522736 3,100 100 132 -128
2020-05-31 13:20:59 GMT 50.754787 -2.582092 3,200 103 138 -128
2020-05-31 13:20:51 GMT 50.756092 -2.589111 3,100 103 138 -128
2020-05-31 13:20:38 GMT 50.758606 -2.600479 3,200 103 138 -128
2020-05-31 13:20:33 GMT 50.759304 -2.606430 3,100 103 138 -128
2020-05-31 13:20:23 GMT 50.760792 -2.618408 3,100 103 138 -128
2020-05-31 13:20:06 GMT 50.762794 -2.634201 3,100 103 138 -128
2020-05-31 13:19:59 GMT 50.763821 -2.642212 3,200 103 138 -128
2020-05-31 13:19:49 GMT 50.765404 -2.652206 3,100 103 138 -128
2020-05-31 13:19:43 GMT 50.768101 -2.667313 3,100 105 138 64
2020-05-31 13:19:31 GMT 50.768101 -2.667313 3,100 105 138 64
2020-05-31 13:19:18 GMT 50.770290 -2.680893 3,200 105 138 64
2020-05-31 13:19:13 GMT 50.770802 -2.685699 3,150 105 138 64
2020-05-31 13:19:00 GMT 50.771687 -2.698135 3,200 106 141 0
2020-05-31 13:18:51 GMT 50.773411 -2.709198 3,200 106 141 0
2020-05-31 13:18:38 GMT 50.776016 -2.722092 3,200 106 141 0
2020-05-31 13:18:28 GMT 50.778297 -2.731094 3,100 106 141 0
2020-05-31 13:18:20 GMT 50.780205 -2.738876 3,200 106 141 0
2020-05-31 13:18:08 GMT 50.781601 -2.749863 3,200 106 141 0
2020-05-31 13:18:01 GMT 50.782486 -2.758331 3,175 106 141 0
2020-05-31 13:17:51 GMT 50.784393 -2.768402 3,175 105 140 0
2020-05-31 13:17:40 GMT 50.786396 -2.777328 3,200
2020-05-31 13:17:25 GMT 50.789425 -2.799377 3,200
2020-05-31 13:17:18 GMT 50.789425 -2.799377 3,200
2020-05-31 13:17:10 GMT 50.791004 -2.808228 3,200
2020-05-31 13:17:00 GMT 50.793098 -2.818909 3,100
2020-05-31 13:16:46 GMT 50.795708 -2.831192 3,100
We lost coverage of the aircraft here for a total of 116 minutes
2020-05-31 11:20:20 GMT 50.832390 -3.043976 2,100 286 176 -320
2020-05-31 11:20:20 GMT 50.832390 -3.043976 2,600 286 176 -320
2020-05-31 11:20:08 GMT 50.829784 -3.028412 2,600 287 171 -384
2020-05-31 11:19:57 GMT 50.826988 -3.012924 2,700 287 171 -384
2020-05-31 11:19:48 GMT 50.824615 -3.004303 2,700 287 171 -384
2020-05-31 11:19:41 GMT 50.822521 -2.995224 2,800 287 171 -384
2020-05-31 11:19:29 GMT 50.819309 -2.979965 2,800 284 182 0
2020-05-31 11:19:14 GMT 50.816284 -2.961121 2,900 284 182 0
2020-05-31 11:19:07 GMT 50.814701 -2.950516 3,000 284 182 0
2020-05-31 11:18:59 GMT 50.813492 -2.942429 2,900 284 182 0
2020-05-31 11:18:45 GMT 50.810093 -2.926331 2,900 284 182 0
2020-05-31 11:18:36 GMT 50.804878 -2.897873 2,900 284 182 0
2020-05-31 11:18:23 GMT 50.804878 -2.897873 3,000 284 182 0
2020-05-31 11:18:17 GMT 50.803482 -2.888184 2,900 284 182 0
2020-05-31 11:18:05 GMT 50.801105 -2.873383 2,900 284 182 0
2020-05-31 11:17:55 GMT 50.797523 -2.848129 2,900 284 182 0
2020-05-31 11:17:46 GMT 50.797523 -2.848129 2,900 284 182 0
2020-05-31 11:17:33 GMT 50.795101 -2.829285 2,900 284 182 0
2020-05-31 11:17:24 GMT 50.793098 -2.816086 2,900 284 182 0
2020-05-31 11:17:17 GMT 50.790817 -2.807999 2,900 284 182 0
2020-05-31 11:17:08 GMT 50.788120 -2.795029 2,975 284 182 0
2020-05-31 11:16:54 GMT 50.784721 -2.775421 3,000 285 173 192
2020-05-31 11:16:47 GMT 50.783508 -2.767334 3,000 285 173 192
2020-05-31 11:16:33 GMT 50.781322 -2.751923 3,000 285 173 192
2020-05-31 11:16:26 GMT 50.780018 -2.742767 3,000 285 173 192
2020-05-31 11:16:12 GMT 50.776901 -2.721329 2,900 285 173 192
2020-05-31 11:16:06 GMT 50.776016 -2.716370 3,000 285 173 192
2020-05-31 11:15:51 GMT 50.773083 -2.698517 3,000 286 178 0
2020-05-31 11:15:44 GMT 50.771408 -2.688522 2,900 286 178 0
2020-05-31 11:15:32 GMT 50.768520 -2.671432 2,900 282 179 64
2020-05-31 11:15:26 GMT 50.767403 -2.666016 2,900 282 179 64
2020-05-31 11:15:12 GMT 50.764191 -2.650604 2,900 282 179 64
2020-05-31 11:15:02 GMT 50.761585 -2.635498 3,000 282 179 64
2020-05-31 11:14:55 GMT 50.760281 -2.627792 2,900 282 179 64
2020-05-31 11:14:46 GMT 50.758698 -2.616119 2,975 282 179 64
2020-05-31 11:14:34 GMT 50.756695 -2.600174 3,000 286 181 0
2020-05-31 11:14:21 GMT 50.755394 -2.584000 3,000 286 181 0
2020-05-31 11:14:13 GMT 50.754414 -2.573166 3,000 286 181 0
2020-05-31 11:13:59 GMT 50.750599 -2.557373 2,900 286 181 0
2020-05-31 11:13:52 GMT 50.748177 -2.546310 2,900 286 181 0
2020-05-31 11:13:40 GMT 50.745384 -2.532120 3,000 286 181 0
2020-05-31 11:13:34 GMT 50.743195 -2.521896 3,000 286 181 0
2020-05-31 11:13:22 GMT 50.741520 -2.509308 3,000 286 181 0
2020-05-31 11:13:14 GMT 50.739613 -2.498093 2,925 286 181 0
2020-05-31 11:12:59 GMT 50.737003 -2.481995 3,000 286 188 0
2020-05-31 11:12:54 GMT 50.735607 -2.474213 2,900 286 188 0
2020-05-31 11:12:45 GMT 50.733513 -2.462387 2,975 286 188 0
2020-05-31 11:12:30 GMT 50.729416 -2.442322 3,000 285 186 192
2020-05-31 11:12:22 GMT 50.728207 -2.434006 2,900 285 186 192
2020-05-31 11:12:14 GMT 50.726017 -2.421188 3,000 285 186 192
2020-05-31 11:11:58 GMT 50.722713 -2.401505 3,000 287 184 -128
2020-05-31 11:11:52 GMT 50.721596 -2.394638 3,000 287 184 -128
2020-05-31 11:11:40 GMT 50.719082 -2.376022 3,000 287 184 -128
2020-05-31 11:11:33 GMT 50.718197 -2.369690 2,900 287 184 -128
2020-05-31 11:11:19 GMT 50.714287 -2.348022 3,000 288 183 64
2020-05-31 11:11:13 GMT 50.713497 -2.342377 2,975 288 183 64
2020-05-31 11:08:22 GMT 50.672623 -2.119980 3,000 267 155 0
2020-05-31 11:08:22 GMT 50.672623 -2.119980 2,200 267 155 0
2020-05-31 11:08:15 GMT 50.671318 -2.113680 2,200 267 155 0
2020-05-31 11:08:10 GMT 50.665314 -2.090000 2,100 267 155 0
2020-05-31 11:07:58 GMT 50.665314 -2.090000 2,000 267 155 0
2020-05-31 11:07:45 GMT 50.661495 -2.072482 1,900 267 155 0
2020-05-31 11:07:39 GMT 50.660007 -2.063500 1,900 267 155 0
2020-05-31 11:07:26 GMT 50.657398 -2.047614 1,800 267 155 0
2020-05-31 11:07:17 GMT 50.657681 -2.039374 1,800 267 155 0
2020-05-31 11:06:08 GMT 50.660049 -1.987106 1,500 267 155 0
2020-05-31 11:05:45 GMT 50.674206 -1.925583 1,500 255 181 -60
2020-05-31 11:05:37 GMT 50.675789 -1.914291 1,500 255 181 -60
2020-05-31 11:04:35 GMT 50.686214 -1.837921 1,500 255 181 -60
2020-05-31 11:04:21 GMT 50.690594 -1.809235 1,500 255 181 -60
2020-05-31 11:04:13 GMT 50.690594 -1.809235 1,500 255 181 -60
2020-05-31 11:03:11 GMT 50.700100 -1.740641 1,500 255 181 -60
2020-05-31 11:02:44 GMT 50.705784 -1.706040 1,400 258 183 -180
2020-05-31 11:02:26 GMT 50.708763 -1.682698 1,500 257 164 0
2020-05-31 11:02:15 GMT 50.710491 -1.669510 1,500 257 186 0
2020-05-31 11:01:58 GMT 50.712330 -1.647832 1,400 250 184 0
2020-05-31 11:01:28 GMT 50.719849 -1.609201 1,500 269 189 0
2020-05-31 11:01:18 GMT 50.720707 -1.596534 1,500 253 210 0
2020-05-31 11:01:06 GMT 50.723133 -1.580713 1,500 252 199 0
2020-05-31 11:00:54 GMT 50.726120 -1.565561 1,500 261 184 0
2020-05-31 11:00:44 GMT 50.727310 -1.552763 1,500 262 180 0
2020-05-31 11:00:30 GMT 50.729786 -1.534988 1,500 259 193 0
2020-05-31 11:00:17 GMT 50.733311 -1.518753 1,500 254 185 0
2020-05-31 10:59:59 GMT 50.738102 -1.495566 1,500 250 151 0
2020-05-31 10:59:48 GMT 50.741314 -1.482850 1,500 249 198 0
2020-05-31 10:59:37 GMT 50.744286 -1.468876 1,500 256 210 0
2020-05-31 10:59:27 GMT 50.746212 -1.456112 1,500 256 187 300
2020-05-31 10:59:15 GMT 50.749138 -1.440932 1,500 256 184 300
2020-05-31 10:59:04 GMT 50.751884 -1.427461 1,500 243 172 0
2020-05-31 10:58:52 GMT 50.755779 -1.412650 1,500 250 171 0
2020-05-31 10:58:41 GMT 50.758736 -1.399569 1,400 256 231 0
2020-05-31 10:58:31 GMT 50.761688 -1.386321 1,400 252 170 0
2020-05-31 10:58:21 GMT 50.768162 -1.363139 1,400 241 199 -420
2020-05-31 10:58:11 GMT 50.768162 -1.363139 1,400 243 208 -360
2020-05-31 10:58:00 GMT 50.772682 -1.349110 1,500 205 89 0
2020-05-31 10:57:50 GMT 50.781609 -1.329679 1,500 229 190 0
2020-05-31 10:57:40 GMT 50.781609 -1.329679 1,500 243 169 0
2020-05-31 10:57:29 GMT 50.786720 -1.317577 1,500 230 199 0
2020-05-31 10:57:18 GMT 50.792126 -1.306524 1,500 234 189 0
2020-05-31 10:57:08 GMT 50.797173 -1.297205 1,500 238 218 0
2020-05-31 10:56:56 GMT 50.803528 -1.285045 1,500 224 173 0
2020-05-31 10:56:44 GMT 50.809948 -1.275763 1,500 273 144 0
2020-05-31 10:56:33 GMT 50.816540 -1.265438 1,500 223 133 -240
2020-05-31 10:56:23 GMT 50.821774 -1.257632 1,500 222 179 -240

Making use of Plane Finder data

You are free to use the raw flight data, aircraft information and images provided in this report for your own purposes provided the data is correctly attributed to Plane Finder. We ask that you please credit Plane Finder and link to planefinder.net in close proximity to the content.

Optionally one of the following logos (no smaller then 150x24px) can be used and must link to planefinder.net

Embedding the Plane Finder map

You are welcome to embed the Plane Finder playback map on your website to offer visitors a more interactive experience. We suggest using the following HTML code:

<iframe src="//planefinder.net/data/report/sr22-solent-ditch/map" width="800" height="600" seamless="seamless"></iframe>

Where our data comes from

Plane Finder has a global network of data feeds and antenna radars that receive data broadcast directly from aircraft. The primary technologies used are ADS-B and MLAT. We also show feeds from the FAA and a FLARM glider feed.

Click here to find out more about the Plane Finder network.

How we collect our data